Chippewa Falls, WI

8:27 PM CST on February 13, 2016 (GMT -0600)
Bateman | | Change Station
CLOSE
Current Station
Personal Weather Station
Location: Chippewa Falls, WI
Elevation: 928 ft
Nearby Weather Stations

Elev 928 ft 44.93 °N, 91.27 °W | Updated 5 seconds ago

Mostly Cloudy
Mostly Cloudy
-4.9 °F
Feels Like -5 °F
N
2.3
Wind Variable Wind from East
Gusts 0.0 mph

Today
High -- | Low -- °F
--% Chance of Precip.
Yesterday
High -- | Low -- °F
Precip. -- in
Pressure 30.52 in
Visibility 10.0 miles
Clouds Clear
Windchill -5 °F
Dew Point -11 °F
Humidity 75%
Rainfall 0.00 in
Snow Depth Not available.
7:09 AM 5:30 PM
Waxing Crescent, 36% visible
METAR KEAU 140156Z 06003KT 10SM CLR M19/M26 A3042 RMK AO2 SLP333 T11941256
Pressure 30.52 in
Visibility 10.0 miles
Clouds Clear
Windchill -5 °F
Dew Point -11 °F
Humidity 75%
Rainfall 0.00 in
Snow Depth Not available.
7:09 AM 5:30 PM
Waxing Crescent, 36% visible
METAR KEAU 140156Z 06003KT 10SM CLR M19/M26 A3042 RMK AO2 SLP333 T11941256

10-Day Weather Forecast

Almanac

Astronomy

Feb. 13, 2016 Rise Set
Actual Time
Civil Twilight
Nautical Twilight
Astronomical Twilight
Moon
Length of Visible Light
Length of Day
Tomorrow will be .
, % of the Moon is Illuminated

Today's Extremes

State Highs State Lows

Community

WunderPhotos

Upload Photos

1,892,726 photos uploaded!

WunderBlog® & News

Nearby

Air Quality

  Air Quality AQ Index Pollutant
Not available.

Snow Depth

Station Depth Elevation

Earthquake Activity

City Distance Mag. Time & Date
Minimum magnitude displayed is 2.5.

Coastal Water Temperatures

Place Temperature

Stations

Nearby Weather Stations

Station Location Temp. Windchill Dew Point Humidity Wind Precip. Elev Updated Type
                   

Watches & Warnings

There are currently no watches in effect.